Terminal Aerodrome Forecast
Issued by NWS Portland, OR

Home | Current Version | Previous Version | Text Only | Print | Product List | Glossary On
Versions: 1 2 3 4 5 6 7 8 9 10 11 12 13 14 15 16 17 18 19 20 21 22 23 24 25 26 27 28 29 30 31 32 33 34 35 36
000
FTUS46 KPQR 192321
TAFPDX
TAF
KPDX 192321Z 2000/2024 19007KT 5SM -SHRA BR SCT015 OVC025
     FM200300 21006KT P6SM -SHRA SCT020 OVC060
     FM201800 21011KT P6SM -RA SCT020 OVC050=

USA.gov is the U.S. government's official web portal to all federal, state and local government web resources and services.